SETU/TUA METAR and TAF weather

Enter ICAO airport designator
Station Type Date Time Source
SETU METAR 2022/11/25 21:00 UTC NOAA

SETU 252100Z 10006KT 9999 BKN020 15/08 Q1028


Station Type Date Time Source
SETU Decoded METAR 2022/11/25 21:00 UTC NOAA

Tulcan / El Rosal, Ecuador (SETU) 00-49N 077-42W
Nov 25, 2022 - 04:00 PM EST / 2022.11.25 2100 UTC
Wind: from the E (100 degrees) at 7 MPH (6 KT):0
Visibility: greater than 7 mile(s):0
Sky conditions: mostly cloudy
Temperature: 59 F (15 C)
Dew Point: 46 F (8 C)
Relative Humidity: 62%
Pressure (altimeter): 30.36 in. Hg (1028 hPa)
ob: SETU 252100Z 10006KT 9999 BKN020 15/08 Q1028
cycle: 21

Station Type Date Time Source
SETU TAF UTC NOAA

Error!

Example: see airport list